Time;durP1;ratioP1;P1;durP2;ratioP2;P2;SDS_P1;SDS_P2;PMS_P1;PMS_P2;Temp;Humidity;BMP_temperature;BMP_pressure;BME280_temperature;BME280_humidity;BME280_pressure;Samples;Min_cycle;Max_cycle;Signal;HPM_P1;HPM_P2
2023/12/27 07:08:45;;;;;;;15.50;3.47;;;2.40;99.90;;;;;;6320433;22;20105;-88
2023/12/27 07:12:28;;;;;;;;;;;;;;;;;;;;;
2023/12/27 07:36:08;;;;;;;13.15;2.75;;;2.90;99.90;;;;;;6047449;23;20027;-88
2023/12/27 07:41:49;;;;;;;15.48;2.88;;;2.60;99.90;;;;;;6038280;23;20030;-88
2023/12/27 07:48:23;;;;;;;;;;;;;;;;;;;;;
2023/12/27 07:54:33;;;;;;;;;;;;;;;;;;;;;
2023/12/27 07:57:41;;;;;;;;;;;;;;;;;;;;;
2023/12/27 08:00:32;;;;;;;13.02;2.30;;;3.40;99.90;;;;;;5127929;27;20432;-88
2023/12/27 08:03:08;;;;;;;15.70;2.70;;;3.40;99.90;;;;;;5087300;28;20046;-88
2023/12/27 08:17:01;;;;;;;11.10;2.50;;;3.30;99.90;;;;;;5269589;22;20577;-88
2023/12/27 08:19:30;;;;;;;13.23;2.70;;;2.70;99.90;;;;;;4965526;28;20051;-87
2023/12/27 08:25:38;;;;;;;11.65;3.05;;;3.30;99.90;;;;;;4920505;29;20831;-90
2023/12/27 08:28:15;;;;;;;;;;;;;;;;;;;;;
2023/12/27 08:59:20;;;;;;;18.75;3.50;;;3.90;99.90;;;;;;5063269;28;19974;-87
2023/12/27 09:02:13;;;;;;;15.20;3.97;;;4.70;99.90;;;;;;5057207;28;20048;-91
2023/12/27 09:04:58;;;;;;;9.88;3.42;;;3.70;99.90;;;;;;4938472;29;20169;-90
2023/12/27 09:08:02;;;;;;;10.80;3.55;;;3.80;99.90;;;;;;4942838;28;20539;-89
2023/12/27 09:11:19;;;;;;;13.60;4.10;;;4.60;99.90;;;;;;4933906;29;20138;-86
2023/12/27 09:13:53;;;;;;;12.23;5.13;;;3.20;99.90;;;;;;4860378;29;20068;-88
2023/12/27 09:17:15;;;;;;;12.20;4.00;;;4.40;99.90;;;;;;4859043;29;20125;-88
2023/12/27 09:20:25;;;;;;;18.95;4.25;;;4.00;99.90;;;;;;4870401;29;20176;-89
2023/12/27 09:27:18;;;;;;;16.20;4.20;;;4.00;99.90;;;;;;4784352;30;20176;-89
2023/12/27 09:30:40;;;;;;;16.58;4.40;;;4.30;99.90;;;;;;4770004;30;20101;-89
2023/12/27 09:33:47;;;;;;;13.32;3.90;;;4.40;99.90;;;;;;4769496;30;20051;-88
2023/12/27 09:40:40;;;;;;;13.10;3.72;;;4.20;99.90;;;;;;4745085;29;20063;-89
2023/12/27 09:43:34;;;;;;;;;;;;;;;;;;;;;
2023/12/27 09:46:46;;;;;;;15.85;4.30;;;4.30;99.90;;;;;;4817804;29;20058;-89
2023/12/27 09:49:38;;;;;;;18.65;3.92;;;4.30;99.90;;;;;;4797849;29;20054;-89
2023/12/27 09:52:36;;;;;;;22.73;4.22;;;4.30;99.90;;;;;;4810745;29;20070;-90
2023/12/27 09:55:12;;;;;;;17.20;5.15;;;4.30;99.90;;;;;;4809713;29;20511;-88
2023/12/27 09:58:11;;;;;;;15.95;4.15;;;4.30;99.90;;;;;;4826921;29;20058;-89
2023/12/27 10:00:48;;;;;;;12.65;4.65;;;5.40;99.90;;;;;;4841813;29;20054;-87
2023/12/27 10:03:28;;;;;;;15.77;5.13;;;5.20;99.90;;;;;;4882132;29;20117;-89
2023/12/27 10:06:27;;;;;;;20.42;4.60;;;4.30;99.90;;;;;;4848782;29;20091;-87
2023/12/27 10:08:57;;;;;;;22.88;4.80;;;4.40;99.90;;;;;;4846553;29;20061;-87
2023/12/27 10:11:27;;;;;;;18.65;5.00;;;4.40;99.90;;;;;;4863587;29;20045;-91
2023/12/27 10:13:53;;;;;;;11.65;4.65;;;4.70;99.90;;;;;;4870649;29;20116;-84
2023/12/27 10:16:26;;;;;;;19.23;5.80;;;5.30;99.90;;;;;;4897903;29;20060;-89
2023/12/27 10:18:52;;;;;;;16.48;4.70;;;4.30;99.90;;;;;;4900904;29;20095;-86
2023/12/27 10:21:18;;;;;;;13.27;5.57;;;5.50;99.90;;;;;;4948735;28;20452;-85
2023/12/27 10:23:44;;;;;;;18.52;5.40;;;5.20;99.90;;;;;;4915119;29;20063;-88
2023/12/27 10:26:10;;;;;;;17.70;6.07;;;5.00;99.90;;;;;;4947480;29;20536;-82
2023/12/27 10:28:36;;;;;;;22.40;6.50;;;5.20;99.90;;;;;;4927746;28;20149;-85
2023/12/27 10:31:05;;;;;;;20.95;6.15;;;4.60;99.90;;;;;;4967552;28;20133;-90
2023/12/27 10:33:41;;;;;;;23.23;6.90;;;4.60;99.90;;;;;;4996850;28;20050;-87
2023/12/27 10:36:08;;;;;;;19.67;5.68;;;5.00;99.90;;;;;;4999843;28;20081;-88
2023/12/27 10:38:33;;;;;;;22.73;6.47;;;5.60;99.90;;;;;;5043844;28;20067;-88
2023/12/27 10:41:08;;;;;;;18.00;6.28;;;5.90;99.90;;;;;;5036151;28;20048;-92
2023/12/27 10:43:34;;;;;;;25.00;6.57;;;4.70;99.90;;;;;;5053455;28;20426;-85
2023/12/27 10:46:06;;;;;;;15.73;6.00;;;5.30;99.90;;;;;;5070378;28;20040;-88
2023/12/27 10:48:33;;;;;;;15.07;5.85;;;5.60;99.90;;;;;;5071056;28;20495;-86
2023/12/27 10:51:00;;;;;;;19.95;5.97;;;5.60;99.90;;;;;;5036325;28;20143;-86
2023/12/27 10:53:29;;;;;;;20.48;6.45;;;5.80;99.90;;;;;;5036177;28;20046;-88
2023/12/27 10:55:59;;;;;;;23.08;6.55;;;5.30;99.90;;;;;;5070675;28;20047;-90
2023/12/27 10:58:29;;;;;;;23.35;6.40;;;5.70;99.90;;;;;;5052561;28;20044;-87
2023/12/27 11:00:56;;;;;;;24.73;6.75;;;5.50;99.90;;;;;;5070606;28;20044;-88
2023/12/27 11:03:22;;;;;;;21.05;6.28;;;5.40;99.90;;;;;;5036167;28;20036;-90
2023/12/27 11:05:50;;;;;;;18.10;6.28;;;6.00;99.90;;;;;;5035588;28;20128;-88
2023/12/27 11:08:17;;;;;;;20.08;6.35;;;5.00;99.90;;;;;;5034759;28;20102;-90
2023/12/27 11:10:48;;;;;;;16.63;6.25;;;5.00;99.90;;;;;;5034747;28;20079;-87
2023/12/27 11:13:18;;;;;;;18.73;6.75;;;4.80;99.90;;;;;;5060831;28;20056;-88
2023/12/27 11:15:53;;;;;;;20.67;6.68;;;5.30;99.90;;;;;;5048724;28;20132;-88
2023/12/27 11:18:23;;;;;;;;;;;5.90;99.90;;;;;;5035553;28;20045;-86
2023/12/27 11:20:51;;;;;;;19.35;5.93;;;5.60;99.90;;;;;;5035238;28;19928;-88
2023/12/27 11:23:17;;;;;;;18.30;6.40;;;5.40;99.90;;;;;;5070073;28;20487;-91
2023/12/27 11:25:50;;;;;;;23.58;7.32;;;6.10;99.90;;;;;;5070282;28;20052;-88
2023/12/27 11:28:16;;;;;;;16.60;6.90;;;4.60;99.90;;;;;;5052634;28;20053;-88
2023/12/27 11:30:43;;;;;;;27.52;7.40;;;5.20;99.90;;;;;;5035342;28;20492;-87
2023/12/27 11:33:08;;;;;;;22.08;6.72;;;6.00;99.90;;;;;;5051517;28;20047;-86
2023/12/27 11:35:41;;;;;;;21.45;7.32;;;6.20;99.90;;;;;;5069649;28;20064;-87
2023/12/27 11:38:33;;;;;;;20.08;6.30;;;6.00;99.90;;;;;;5064330;28;20058;-89
2023/12/27 11:41:01;;;;;;;19.85;7.40;;;6.00;99.90;;;;;;4952741;28;20058;-86
2023/12/27 11:43:46;;;;;;;21.13;7.57;;;6.40;99.90;;;;;;4937893;28;20063;-88
2023/12/27 11:46:13;;;;;;;20.20;8.25;;;6.30;99.90;;;;;;4962554;28;20059;-84
2023/12/27 11:48:48;;;;;;;19.48;8.10;;;6.10;99.90;;;;;;4952286;28;20524;-89
2023/12/27 11:51:33;;;;;;;22.85;8.52;;;6.00;99.90;;;;;;4967950;28;20141;-86
2023/12/27 11:54:03;;;;;;;17.80;8.05;;;6.10;99.90;;;;;;4952724;28;20150;-87
2023/12/27 11:56:36;;;;;;;18.77;7.95;;;5.20;99.90;;;;;;4968512;28;20062;-87
2023/12/27 11:59:11;;;;;;;16.95;8.30;;;6.20;99.90;;;;;;4961064;28;20465;-87
2023/12/27 12:02:07;;;;;;;24.63;8.82;;;6.00;99.90;;;;;;4962022;28;20047;-88
2023/12/27 12:04:53;;;;;;;19.48;8.85;;;5.90;99.90;;;;;;4962574;28;20121;-87
2023/12/27 12:07:39;;;;;;;19.92;9.18;;;5.10;99.90;;;;;;4967864;28;20053;-86
2023/12/27 12:10:39;;;;;;;16.15;8.00;;;5.20;99.90;;;;;;4951667;28;20518;-86
2023/12/27 12:13:32;;;;;;;21.08;8.98;;;6.10;99.90;;;;;;4964731;28;20074;-86
2023/12/27 12:16:01;;;;;;;16.42;7.82;;;5.80;99.90;;;;;;4966967;28;20062;-87
2023/12/27 12:18:34;;;;;;;12.85;7.40;;;6.00;99.90;;;;;;5023054;28;20040;-87
2023/12/27 12:21:19;;;;;;;16.92;8.95;;;4.50;99.90;;;;;;5034208;28;20399;-88
2023/12/27 12:23:51;;;;;;;16.60;8.18;;;5.60;99.90;;;;;;5047103;28;20055;-85
2023/12/27 12:26:17;;;;;;;18.85;8.38;;;5.20;99.90;;;;;;5034388;28;20044;-86
2023/12/27 12:29:08;;;;;;;17.02;8.63;;;6.20;99.90;;;;;;5051236;28;20044;-88
2023/12/27 12:31:35;;;;;;;15.73;8.07;;;5.20;99.90;;;;;;5047414;28;20048;-85
2023/12/27 12:34:01;;;;;;;16.02;8.32;;;5.20;99.90;;;;;;5034495;28;20476;-85
2023/12/27 12:36:27;;;;;;;14.68;9.05;;;6.10;99.90;;;;;;5050372;28;20044;-88
2023/12/27 12:38:53;;;;;;;17.00;8.82;;;6.30;99.90;;;;;;5034482;28;20037;-87
2023/12/27 12:41:22;;;;;;;15.85;8.98;;;5.30;99.90;;;;;;5034090;28;20067;-87
2023/12/27 12:43:48;;;;;;;17.58;8.55;;;4.80;99.90;;;;;;5034544;28;20120;-86
2023/12/27 12:46:17;;;;;;;20.13;9.07;;;6.10;99.90;;;;;;5036515;28;20051;-88
2023/12/27 12:48:49;;;;;;;17.75;9.13;;;5.60;99.90;;;;;;5054507;28;20075;-88
2023/12/27 12:51:59;;;;;;;17.08;10.05;;;6.30;99.90;;;;;;5072229;28;20457;-89
2023/12/27 12:55:13;;;;;;;13.77;9.00;;;6.20;99.90;;;;;;4954531;28;20082;-88
2023/12/27 12:57:51;;;;;;;20.27;10.18;;;6.20;99.90;;;;;;4897977;29;20056;-87
2023/12/27 13:01:34;;;;;;;17.67;10.80;;;5.50;99.90;;;;;;4910428;29;20152;-90
2023/12/27 13:04:33;;;;;;;17.73;11.18;;;5.50;99.90;;;;;;4898503;29;20462;-89
2023/12/27 13:07:28;;;;;;;17.30;10.70;;;5.50;99.90;;;;;;4893152;29;20205;-88
2023/12/27 13:09:59;;;;;;;21.15;11.43;;;6.20;99.90;;;;;;4897865;29;20064;-88
2023/12/27 13:12:34;;;;;;;22.88;11.32;;;6.40;99.90;;;;;;4891131;29;20067;-88
2023/12/27 13:15:00;;;;;;;;;;;5.60;99.90;;;;;;4899007;29;20118;-87
2023/12/27 13:17:29;;;;;;;17.52;10.18;;;6.60;99.90;;;;;;4897996;29;20386;-86
2023/12/27 13:26:42;;;;;;;18.88;12.02;;;6.40;99.90;;;;;;4930351;28;20141;-89
2023/12/27 13:29:07;;;;;;;19.52;13.57;;;5.20;99.90;;;;;;4970779;28;20378;-86
2023/12/27 13:34:14;;;;;;;19.65;13.68;;;5.90;99.90;;;;;;5395838;22;20076;-87
2023/12/27 13:36:42;;;;;;;23.48;15.10;;;6.60;99.90;;;;;;5048246;28;20076;-91
2023/12/27 13:39:08;;;;;;;23.73;14.70;;;6.90;99.90;;;;;;5034415;28;20373;-88
2023/12/27 13:46:34;;;;;;;26.15;17.35;;;5.90;99.90;;;;;;5085379;22;20453;-87
2023/12/27 13:52:38;;;;;;;25.20;16.95;;;6.00;99.90;;;;;;4944894;29;20447;-88
2023/12/27 13:55:21;;;;;;;28.50;16.13;;;6.10;99.90;;;;;;4927416;29;20126;-89
2023/12/27 13:57:55;;;;;;;26.00;18.23;;;6.10;99.90;;;;;;4947513;28;20051;-87
2023/12/27 14:00:24;;;;;;;29.30;17.00;;;6.80;99.90;;;;;;4946017;29;20059;-88
2023/12/27 14:02:55;;;;;;;27.45;18.45;;;6.90;99.90;;;;;;4930840;28;20066;-87
2023/12/27 14:05:31;;;;;;;27.20;19.38;;;6.20;99.90;;;;;;4928352;29;20515;-89
2023/12/27 14:08:15;;;;;;;25.48;17.50;;;6.90;99.90;;;;;;4930047;29;20130;-87
2023/12/27 14:10:59;;;;;;;33.17;18.40;;;6.30;99.90;;;;;;4931409;29;20468;-83
2023/12/27 14:13:25;;;;;;;27.92;18.20;;;6.40;99.90;;;;;;4926600;29;20062;-89
2023/12/27 14:15:50;;;;;;;29.08;19.90;;;7.10;99.90;;;;;;4947595;29;20059;-86
2023/12/27 14:22:04;;;;;;;28.42;17.50;;;6.40;99.90;;;;;;4943231;29;20055;-85
2023/12/27 14:24:32;;;;;;;33.85;20.55;;;6.50;99.90;;;;;;4947813;28;20043;-87
2023/12/27 14:27:03;;;;;;;29.52;19.13;;;7.60;99.90;;;;;;4948294;29;20075;-88
2023/12/27 14:29:35;;;;;;;28.67;19.50;;;7.20;99.90;;;;;;4950311;28;20061;-89
2023/12/27 14:32:12;;;;;;;30.55;20.95;;;7.00;99.90;;;;;;4976686;28;20053;-87
2023/12/27 14:34:38;;;;;;;31.65;19.63;;;6.60;99.90;;;;;;4993771;28;20148;-87
2023/12/27 14:37:06;;;;;;;30.73;19.48;;;6.60;99.90;;;;;;4977068;28;20689;-85
2023/12/27 14:39:31;;;;;;;30.88;20.02;;;7.70;99.90;;;;;;4992829;28;20064;-86
2023/12/27 14:41:57;;;;;;;33.17;19.92;;;6.70;99.90;;;;;;5006724;28;20158;-84
2023/12/27 14:44:23;;;;;;;31.17;18.80;;;7.50;99.90;;;;;;4971617;28;20042;-85
2023/12/27 14:46:48;;;;;;;30.17;19.05;;;7.10;99.90;;;;;;4972762;28;20072;-84
2023/12/27 14:49:18;;;;;;;31.23;18.67;;;7.10;99.90;;;;;;4988708;28;20046;-88
2023/12/27 14:51:43;;;;;;;26.55;17.92;;;6.80;99.90;;;;;;4989156;28;20046;-89
2023/12/27 14:54:09;;;;;;;26.30;16.88;;;7.50;99.90;;;;;;4992584;28;20052;-86
2023/12/27 14:56:35;;;;;;;29.73;18.42;;;7.10;99.90;;;;;;4989602;28;20045;-86
2023/12/27 14:59:01;;;;;;;27.67;17.63;;;7.50;99.90;;;;;;4972066;28;20465;-85
2023/12/27 15:01:26;;;;;;;27.27;17.80;;;6.90;99.90;;;;;;4992875;28;20048;-85
2023/12/27 15:03:52;;;;;;;29.20;17.73;;;7.90;99.90;;;;;;5008828;28;20046;-86
2023/12/27 15:06:18;;;;;;;23.88;16.77;;;7.80;99.90;;;;;;5006814;28;20387;-85
2023/12/27 15:08:44;;;;;;;22.48;16.42;;;7.80;99.90;;;;;;4990280;28;20172;-87
2023/12/27 15:11:15;;;;;;;23.30;15.93;;;7.70;99.90;;;;;;4974716;28;20054;-87
2023/12/27 15:13:41;;;;;;;23.13;15.77;;;6.90;99.90;;;;;;5008769;28;20084;-87
2023/12/27 15:16:08;;;;;;;25.30;14.13;;;7.50;99.90;;;;;;4972831;28;20046;-86
2023/12/27 15:18:35;;;;;;;19.73;14.50;;;8.10;99.90;;;;;;5009785;28;20061;-85
2023/12/27 15:21:01;;;;;;;22.10;13.07;;;8.00;99.90;;;;;;4989191;28;20050;-86
2023/12/27 15:23:27;;;;;;;22.90;14.00;;;7.70;99.90;;;;;;4975007;28;20057;-83
2023/12/27 15:25:55;;;;;;;21.23;12.50;;;8.10;99.90;;;;;;4973832;28;20038;-86
2023/12/27 15:28:24;;;;;;;20.25;11.45;;;7.10;99.90;;;;;;4975893;28;20049;-86
2023/12/27 15:30:50;;;;;;;21.25;12.18;;;7.80;99.90;;;;;;5009649;28;20073;-84
2023/12/27 15:33:16;;;;;;;16.55;11.20;;;7.40;99.90;;;;;;5009974;28;20120;-87
2023/12/27 15:35:42;;;;;;;22.60;12.00;;;8.30;99.90;;;;;;4991899;28;20171;-89
2023/12/27 15:38:08;;;;;;;15.85;10.10;;;8.30;99.90;;;;;;4985914;28;20037;-89
2023/12/27 15:40:33;;;;;;;19.20;10.70;;;7.40;99.90;;;;;;4992364;28;20092;-88
2023/12/27 15:42:59;;;;;;;20.30;11.00;;;7.90;99.90;;;;;;4992750;28;20054;-85
2023/12/27 15:45:25;;;;;;;17.63;9.70;;;8.10;99.90;;;;;;5000958;28;20061;-85
2023/12/27 15:47:50;;;;;;;20.25;10.25;;;7.80;99.90;;;;;;5004764;28;20065;-86
2023/12/27 15:50:18;;;;;;;19.38;9.30;;;8.00;99.90;;;;;;4987771;28;20400;-86
2023/12/27 15:52:43;;;;;;;16.60;8.77;;;7.40;99.90;;;;;;5000227;28;20122;-86
2023/12/27 15:55:09;;;;;;;18.17;9.43;;;8.30;99.90;;;;;;4969913;28;20112;-88
2023/12/27 15:57:36;;;;;;;16.05;7.78;;;7.50;99.90;;;;;;5002506;28;20054;-85
2023/12/27 16:00:05;;;;;;;13.43;7.63;;;7.50;99.90;;;;;;5000001;28;20054;-87
2023/12/27 16:02:31;;;;;;;16.95;8.95;;;7.50;99.90;;;;;;4969265;28;20500;-85
2023/12/27 16:04:56;;;;;;;15.57;9.20;;;7.50;99.90;;;;;;4987614;28;20049;-89
2023/12/27 16:07:22;;;;;;;28.55;13.40;;;7.60;99.90;;;;;;4988975;28;20053;-88
2023/12/27 16:09:48;;;;;;;23.23;11.38;;;8.30;99.90;;;;;;4987711;28;20033;-86
2023/12/27 16:12:16;;;;;;;22.77;11.88;;;7.50;99.90;;;;;;5005271;28;20054;-86
2023/12/27 16:14:42;;;;;;;15.95;9.30;;;8.40;99.90;;;;;;4982447;28;20046;-86
2023/12/27 16:17:11;;;;;;;19.70;11.07;;;7.60;99.90;;;;;;4985538;28;20046;-87
2023/12/27 16:19:40;;;;;;;17.58;8.40;;;7.60;99.90;;;;;;4971784;28;20443;-85
2023/12/27 16:22:07;;;;;;;11.98;8.00;;;7.60;99.90;;;;;;5007744;28;20050;-88
2023/12/27 16:24:33;;;;;;;17.10;6.82;;;7.50;99.90;;;;;;4975742;28;20042;-88
2023/12/27 16:26:59;;;;;;;13.45;6.70;;;8.50;99.90;;;;;;4992233;28;20042;-88
2023/12/27 16:29:25;;;;;;;17.95;7.43;;;8.30;99.90;;;;;;5006259;28;20038;-87
2023/12/27 16:31:51;;;;;;;13.52;5.90;;;8.50;99.90;;;;;;4991858;28;20129;-87
2023/12/27 16:34:17;;;;;;;14.27;6.38;;;7.80;99.90;;;;;;4990046;28;20568;-86
2023/12/27 16:36:42;;;;;;;14.02;6.45;;;7.20;99.90;;;;;;4991695;28;20045;-86
2023/12/27 16:39:11;;;;;;;10.68;6.68;;;8.00;99.90;;;;;;5009670;28;20433;-89
2023/12/27 16:41:37;;;;;;;13.00;6.10;;;8.30;99.90;;;;;;4970941;28;20525;-85
2023/12/27 16:44:03;;;;;;;11.07;5.47;;;8.40;99.90;;;;;;5001528;28;20046;-84
2023/12/27 16:46:29;;;;;;;13.82;5.93;;;7.80;99.90;;;;;;4976806;28;20553;-84
2023/12/27 16:48:54;;;;;;;12.80;6.03;;;8.60;99.90;;;;;;4991271;28;20391;-87
2023/12/27 16:51:20;;;;;;;12.32;6.63;;;8.50;99.90;;;;;;4978650;28;20395;-86
2023/12/27 16:53:46;;;;;;;12.45;5.30;;;7.80;99.90;;;;;;4976890;28;20050;-84
2023/12/27 16:56:15;;;;;;;15.88;5.70;;;8.70;99.90;;;;;;4960192;28;20062;-86
2023/12/27 16:58:47;;;;;;;18.33;5.93;;;7.80;99.90;;;;;;4983786;28;20153;-88
2023/12/27 17:01:13;;;;;;;12.93;5.35;;;7.80;99.90;;;;;;4955304;28;20062;-90
2023/12/27 17:03:39;;;;;;;13.43;5.25;;;8.20;99.90;;;;;;4987814;28;20049;-86
2023/12/27 17:06:05;;;;;;;10.13;5.00;;;8.10;99.90;;;;;;4968299;28;20034;-86
2023/12/27 17:08:30;;;;;;;11.88;5.35;;;8.10;99.90;;;;;;4957963;28;20081;-87
2023/12/27 17:10:56;;;;;;;13.93;5.57;;;8.50;99.90;;;;;;4988189;28;20073;-87
2023/12/27 17:13:21;;;;;;;12.10;5.50;;;8.80;99.90;;;;;;4956736;28;20505;-83
2023/12/27 17:15:50;;;;;;;14.85;6.25;;;8.50;99.90;;;;;;4993282;28;20052;-89
2023/12/27 17:18:17;;;;;;;11.63;5.38;;;7.90;99.90;;;;;;4991432;28;20089;-89
2023/12/27 17:20:44;;;;;;;14.43;5.25;;;8.80;99.90;;;;;;4993594;28;20050;-85
2023/12/27 17:23:09;;;;;;;10.55;5.07;;;8.40;99.90;;;;;;4974146;28;20132;-88
2023/12/27 17:25:39;;;;;;;10.98;5.05;;;7.90;99.90;;;;;;4989185;28;20201;-88
2023/12/27 17:28:05;;;;;;;10.00;5.03;;;8.80;99.90;;;;;;4970686;28;20043;-86
2023/12/27 17:30:31;;;;;;;13.98;4.80;;;8.60;99.90;;;;;;4970621;28;20108;-87
2023/12/27 17:32:56;;;;;;;10.43;4.65;;;8.60;99.90;;;;;;4990240;28;20125;-89
2023/12/27 17:35:22;;;;;;;12.52;4.65;;;7.90;99.90;;;;;;4958928;28;20047;-84
2023/12/27 17:37:48;;;;;;;13.15;5.28;;;7.90;99.90;;;;;;4991121;28;20093;-90
2023/12/27 17:40:17;;;;;;;15.48;5.20;;;7.90;99.90;;;;;;4958761;28;20109;-85
2023/12/27 17:42:46;;;;;;;13.35;4.72;;;7.90;99.90;;;;;;4973514;28;20052;-90
2023/12/27 17:45:15;;;;;;;12.18;4.88;;;8.00;99.90;;;;;;4973472;28;21158;-88
2023/12/27 17:47:42;;;;;;;9.75;4.00;;;8.80;99.90;;;;;;4982118;28;20060;-86
2023/12/27 17:50:15;;;;;;;11.60;4.30;;;8.80;99.90;;;;;;4969632;28;20046;-88
2023/12/27 17:53:21;;;;;;;12.27;4.78;;;8.70;99.90;;;;;;4978289;28;20528;-90
2023/12/27 17:55:50;;;;;;;10.70;4.23;;;8.00;99.90;;;;;;4896690;29;20567;-83
2023/12/27 17:58:19;;;;;;;14.18;4.28;;;7.90;99.90;;;;;;4889065;29;20406;-87
2023/12/27 18:00:50;;;;;;;10.95;4.97;;;7.70;99.90;;;;;;4900972;29;20063;-85
2023/12/27 18:03:24;;;;;;;12.30;4.95;;;8.50;99.90;;;;;;4924239;29;20180;-87
2023/12/27 18:05:54;;;;;;;13.82;4.07;;;7.90;99.90;;;;;;4908058;29;20649;-88
2023/12/27 18:08:20;;;;;;;11.27;4.90;;;7.90;99.90;;;;;;4905543;29;20064;-87
2023/12/27 18:10:48;;;;;;;8.50;4.60;;;7.90;99.90;;;;;;4914016;29;20109;-88
2023/12/27 18:13:14;;;;;;;12.13;4.18;;;7.90;99.90;;;;;;4916810;29;20052;-87
2023/12/27 18:15:41;;;;;;;15.50;4.72;;;8.60;99.90;;;;;;4878974;29;20058;-84
2023/12/27 18:18:07;;;;;;;11.48;3.88;;;8.60;99.90;;;;;;4904637;29;20200;-85
2023/12/27 18:20:33;;;;;;;10.05;4.30;;;8.70;99.90;;;;;;4907963;29;20445;-86
2023/12/27 18:22:59;;;;;;;10.15;4.18;;;7.90;99.90;;;;;;4905514;29;20036;-84
2023/12/27 18:25:25;;;;;;;14.05;4.10;;;8.80;99.90;;;;;;4917829;29;20119;-84
2023/12/27 18:27:50;;;;;;;13.55;4.50;;;8.80;99.90;;;;;;4907793;29;20568;-84
2023/12/27 18:30:16;;;;;;;10.77;3.92;;;8.80;99.90;;;;;;4907769;29;20496;-86
2023/12/27 18:32:42;;;;;;;14.38;3.78;;;7.90;99.90;;;;;;4933734;28;20413;-82
2023/12/27 18:35:11;;;;;;;15.75;4.38;;;8.20;99.90;;;;;;4995461;28;20398;-86
2023/12/27 18:37:37;;;;;;;13.77;4.90;;;7.90;99.90;;;;;;4981847;28;20069;-86
2023/12/27 18:40:06;;;;;;;15.35;4.45;;;8.70;99.90;;;;;;4984241;28;20129;-86
2023/12/27 18:42:32;;;;;;;9.93;3.47;;;7.40;99.90;;;;;;4972118;28;20065;-85
2023/12/27 18:44:58;;;;;;;10.35;4.25;;;8.70;99.90;;;;;;4982783;28;20034;-83
2023/12/27 18:47:23;;;;;;;12.65;3.90;;;7.90;99.90;;;;;;4994057;28;20057;-86
2023/12/27 18:49:49;;;;;;;10.00;3.88;;;7.90;99.90;;;;;;5014740;28;20544;-85
2023/12/27 18:52:17;;;;;;;12.50;4.20;;;8.50;99.90;;;;;;4977166;28;20112;-85
2023/12/27 18:54:44;;;;;;;11.77;4.03;;;8.50;99.90;;;;;;5011676;28;20050;-87
2023/12/27 18:57:09;;;;;;;17.92;3.92;;;8.40;99.90;;;;;;5011588;28;20572;-84
2023/12/27 18:59:38;;;;;;;14.82;3.58;;;8.80;99.90;;;;;;4993885;28;20125;-88
2023/12/27 19:02:05;;;;;;;13.35;3.38;;;7.90;99.90;;;;;;4977853;28;20121;-86
2023/12/27 19:04:31;;;;;;;14.90;3.80;;;8.80;99.90;;;;;;5007224;28;20049;-87
2023/12/27 19:06:57;;;;;;;16.70;2.80;;;8.30;99.90;;;;;;4978546;28;20064;-87
2023/12/27 19:09:23;;;;;;;15.48;4.40;;;8.30;99.90;;;;;;4993795;28;20058;-83
2023/12/27 19:11:48;;;;;;;11.90;3.40;;;8.60;99.90;;;;;;5015923;28;20061;-84
2023/12/27 19:14:14;;;;;;;12.73;4.13;;;8.70;99.90;;;;;;5019266;28;20060;-85
2023/12/27 19:16:40;;;;;;;8.90;2.80;;;8.10;99.90;;;;;;4980252;28;20056;-85
2023/12/27 19:19:06;;;;;;;9.93;2.45;;;7.90;99.90;;;;;;5011323;28;20095;-84
2023/12/27 19:21:43;;;;;;;8.68;2.42;;;8.50;99.90;;;;;;4993434;28;20056;-85
2023/12/27 19:24:10;;;;;;;13.52;2.63;;;7.90;99.90;;;;;;4993359;28;20049;-87
2023/12/27 19:26:37;;;;;;;11.65;2.95;;;8.80;99.90;;;;;;4993327;28;20783;-86
2023/12/27 19:29:03;;;;;;;9.50;2.58;;;7.90;99.90;;;;;;4992986;28;20400;-85
2023/12/27 19:31:29;;;;;;;5.72;2.10;;;7.90;99.90;;;;;;5011679;28;20050;-87
2023/12/27 19:33:55;;;;;;;12.48;2.40;;;8.20;99.90;;;;;;4968594;28;20144;-86
2023/12/27 19:36:20;;;;;;;6.80;2.38;;;7.90;99.90;;;;;;5010996;28;20041;-84
2023/12/27 19:38:46;;;;;;;8.43;2.33;;;8.20;99.90;;;;;;4992976;28;20394;-84
2023/12/27 19:41:14;;;;;;;8.98;2.30;;;7.90;99.90;;;;;;5017050;28;20531;-87
2023/12/27 19:43:40;;;;;;;6.03;2.17;;;8.80;99.90;;;;;;4996894;28;20627;-84
2023/12/27 19:46:06;;;;;;;6.72;2.40;;;7.90;99.90;;;;;;4996223;28;20112;-85
2023/12/27 19:48:32;;;;;;;9.82;2.42;;;8.00;99.90;;;;;;4995760;28;20078;-86
2023/12/27 19:50:58;;;;;;;8.75;2.13;;;8.80;99.90;;;;;;4996476;28;20438;-84
2023/12/27 19:53:24;;;;;;;9.90;2.83;;;8.00;99.90;;;;;;4997150;28;20398;-86
2023/12/27 19:55:50;;;;;;;6.03;1.92;;;8.30;99.90;;;;;;5013460;28;20464;-83
2023/12/27 19:58:16;;;;;;;6.38;1.80;;;8.10;99.90;;;;;;5014592;28;20052;-86
2023/12/27 20:00:41;;;;;;;8.02;2.00;;;8.10;99.90;;;;;;4983678;28;20045;-83
2023/12/27 20:03:10;;;;;;;9.52;2.05;;;8.10;99.90;;;;;;4998767;28;20046;-84
2023/12/27 20:05:36;;;;;;;7.53;1.70;;;8.30;99.90;;;;;;4981766;28;21079;-85
2023/12/27 20:08:02;;;;;;;6.13;1.90;;;8.40;99.90;;;;;;4997849;28;20117;-83
2023/12/27 20:10:28;;;;;;;7.75;2.25;;;8.20;99.90;;;;;;5017501;28;20053;-84
2023/12/27 20:12:54;;;;;;;11.52;1.80;;;8.20;99.90;;;;;;5019103;28;20074;-85
2023/12/27 20:15:20;;;;;;;5.20;2.03;;;8.20;99.90;;;;;;5017166;28;20046;-85
2023/12/27 20:17:46;;;;;;;6.70;2.00;;;8.60;99.90;;;;;;5010590;28;20111;-83
2023/12/27 20:20:11;;;;;;;7.47;1.75;;;8.90;99.90;;;;;;5017865;28;20185;-83
2023/12/27 20:22:37;;;;;;;6.97;1.80;;;8.20;99.90;;;;;;4992961;28;20042;-88
2023/12/27 20:25:03;;;;;;;7.38;1.63;;;8.20;99.90;;;;;;4983251;28;20046;-84
2023/12/27 20:27:29;;;;;;;7.13;2.00;;;8.20;99.90;;;;;;4999882;28;20133;-88
2023/12/27 20:29:54;;;;;;;4.47;1.70;;;8.20;99.90;;;;;;5018881;28;20496;-90
2023/12/27 20:32:20;;;;;;;5.55;2.03;;;9.20;99.90;;;;;;5000001;28;20097;-85
2023/12/27 20:34:46;;;;;;;11.15;2.30;;;8.20;99.90;;;;;;5004068;28;20838;-88
2023/12/27 20:37:12;;;;;;;5.35;2.20;;;8.00;99.90;;;;;;5020034;28;20060;-84
2023/12/27 20:39:39;;;;;;;5.60;2.00;;;8.20;99.90;;;;;;5000643;28;20075;-86
2023/12/27 20:42:05;;;;;;;8.05;1.70;;;8.70;99.90;;;;;;4984814;28;20618;-87
2023/12/27 20:44:30;;;;;;;6.13;1.88;;;8.20;99.90;;;;;;4986119;28;20080;-87
2023/12/27 20:46:56;;;;;;;4.05;1.80;;;8.50;99.90;;;;;;4976095;28;20077;-83
2023/12/27 20:49:22;;;;;;;4.70;1.95;;;9.20;99.90;;;;;;4976297;28;20062;-84
2023/12/27 20:51:47;;;;;;;7.40;2.03;;;8.50;99.90;;;;;;5011862;28;20030;-87
2023/12/27 20:54:19;;;;;;;5.43;2.08;;;8.80;99.90;;;;;;5010581;28;20057;-88
2023/12/27 20:56:47;;;;;;;7.68;2.33;;;8.90;99.90;;;;;;4991917;28;20041;-85
2023/12/27 20:59:13;;;;;;;5.97;1.98;;;9.10;99.90;;;;;;4993048;28;20516;-84
2023/12/27 21:01:39;;;;;;;8.50;2.05;;;9.10;99.90;;;;;;4993447;28;20046;-85
2023/12/27 21:04:06;;;;;;;5.75;1.77;;;8.10;99.90;;;;;;4996130;28;20034;-87
2023/12/27 21:06:32;;;;;;;6.97;1.85;;;8.10;99.90;;;;;;5016053;28;20050;-85
2023/12/27 21:08:59;;;;;;;7.22;2.28;;;9.00;99.90;;;;;;4980239;28;20060;-87
2023/12/27 21:11:24;;;;;;;9.43;2.13;;;8.70;99.90;;;;;;4996095;28;20041;-84
2023/12/27 21:13:50;;;;;;;5.15;2.38;;;8.80;99.90;;;;;;4997274;28;20179;-86
2023/12/27 21:16:23;;;;;;;5.68;1.65;;;9.00;99.90;;;;;;4981615;28;20120;-90
2023/12/27 21:18:49;;;;;;;4.25;2.05;;;9.00;99.90;;;;;;4998845;28;20608;-86
2023/12/27 21:21:14;;;;;;;5.25;2.03;;;8.90;99.90;;;;;;4996924;28;20428;-89
2023/12/27 21:23:41;;;;;;;6.72;2.28;;;8.00;99.90;;;;;;4981525;28;20056;-88
2023/12/27 21:26:26;;;;;;;7.38;1.58;;;8.90;99.90;;;;;;4980577;28;20062;-86
2023/12/27 21:28:52;;;;;;;7.25;2.40;;;8.10;99.90;;;;;;4998527;28;20137;-87
2023/12/27 21:31:19;;;;;;;5.85;1.80;;;8.30;99.90;;;;;;5018196;28;20059;-85
2023/12/27 21:33:50;;;;;;;5.00;1.90;;;9.00;99.90;;;;;;5017920;28;20155;-87
2023/12/27 21:36:25;;;;;;;5.32;1.92;;;9.00;99.90;;;;;;5013329;28;20041;-87
2023/12/27 21:38:52;;;;;;;5.53;1.70;;;8.10;99.90;;;;;;4995835;28;20056;-87
2023/12/27 21:41:28;;;;;;;4.60;2.03;;;8.10;99.90;;;;;;4983875;28;20049;-85
2023/12/27 21:43:56;;;;;;;7.93;2.47;;;8.00;99.90;;;;;;5013771;28;20030;-83
2023/12/27 21:46:24;;;;;;;5.70;2.17;;;8.80;99.90;;;;;;4981273;28;20053;-83
2023/12/27 21:48:50;;;;;;;4.32;1.92;;;8.80;99.90;;;;;;4976384;28;20050;-85
2023/12/27 21:51:17;;;;;;;8.00;2.03;;;8.90;99.90;;;;;;4993088;28;20096;-82
2023/12/27 21:53:43;;;;;;;7.63;2.30;;;8.40;99.90;;;;;;4959603;28;20081;-88
2023/12/27 21:56:19;;;;;;;4.70;2.05;;;8.40;99.90;;;;;;4959651;28;20102;-89
2023/12/27 21:58:46;;;;;;;6.68;2.33;;;8.00;99.90;;;;;;4993350;28;20038;-82
2023/12/27 22:01:11;;;;;;;5.00;2.08;;;8.90;99.90;;;;;;4975768;28;20054;-85
2023/12/27 22:03:37;;;;;;;6.03;2.38;;;8.90;99.90;;;;;;4993964;28;20042;-88
2023/12/27 22:06:03;;;;;;;7.88;2.17;;;8.60;99.90;;;;;;4975441;28;20054;-87
2023/12/27 22:08:28;;;;;;;6.03;2.25;;;8.00;99.90;;;;;;4974869;28;20046;-84
2023/12/27 22:10:54;;;;;;;5.57;2.10;;;8.40;99.90;;;;;;4976529;28;20064;-87